sensor_id;sensor_type;location;lat;lon;timestamp;temperature;humidity
546;DHT22;259;53.304;9.816;2024-01-07T00:00:18;7.30;92.90
546;DHT22;259;53.304;9.816;2024-01-07T00:02:44;7.50;93.30
546;DHT22;259;53.304;9.816;2024-01-07T00:05:10;7.80;93.70
546;DHT22;259;53.304;9.816;2024-01-07T00:07:35;8.10;93.70
546;DHT22;259;53.304;9.816;2024-01-07T00:10:01;8.40;93.70
546;DHT22;259;53.304;9.816;2024-01-07T00:12:27;8.80;93.00
546;DHT22;259;53.304;9.816;2024-01-07T00:14:52;9.00;91.90
546;DHT22;259;53.304;9.816;2024-01-07T00:17:18;9.20;91.20
546;DHT22;259;53.304;9.816;2024-01-07T00:19:44;9.30;90.60
546;DHT22;259;53.304;9.816;2024-01-07T00:22:09;9.40;90.20
546;DHT22;259;53.304;9.816;2024-01-07T00:24:35;9.40;89.70
546;DHT22;259;53.304;9.816;2024-01-07T00:27:01;9.40;89.00
546;DHT22;259;53.304;9.816;2024-01-07T00:29:27;9.40;88.60
546;DHT22;259;53.304;9.816;2024-01-07T00:31:53;9.40;88.20
546;DHT22;259;53.304;9.816;2024-01-07T00:34:19;9.40;87.90
546;DHT22;259;53.304;9.816;2024-01-07T00:36:45;9.40;87.80
546;DHT22;259;53.304;9.816;2024-01-07T00:39:10;9.40;87.70
546;DHT22;259;53.304;9.816;2024-01-07T00:41:36;9.30;87.50
546;DHT22;259;53.304;9.816;2024-01-07T00:44:02;9.30;87.40
546;DHT22;259;53.304;9.816;2024-01-07T00:46:27;9.20;87.40
546;DHT22;259;53.304;9.816;2024-01-07T00:48:53;9.20;87.40
546;DHT22;259;53.304;9.816;2024-01-07T00:51:19;9.10;87.30
546;DHT22;259;53.304;9.816;2024-01-07T00:53:45;9.10;87.40
546;DHT22;259;53.304;9.816;2024-01-07T00:56:10;9.10;87.50
546;DHT22;259;53.304;9.816;2024-01-07T00:58:36;9.00;87.40
546;DHT22;259;53.304;9.816;2024-01-07T01:01:02;9.00;87.60
546;DHT22;259;53.304;9.816;2024-01-07T01:03:28;8.90;87.60
546;DHT22;259;53.304;9.816;2024-01-07T01:05:54;8.90;87.70
546;DHT22;259;53.304;9.816;2024-01-07T01:08:19;8.90;87.80
546;DHT22;259;53.304;9.816;2024-01-07T01:10:45;8.80;87.90
546;DHT22;259;53.304;9.816;2024-01-07T01:13:11;8.80;88.10
546;DHT22;259;53.304;9.816;2024-01-07T01:15:37;8.70;88.20
546;DHT22;259;53.304;9.816;2024-01-07T01:18:02;8.70;88.30
546;DHT22;259;53.304;9.816;2024-01-07T01:20:28;8.60;88.40
546;DHT22;259;53.304;9.816;2024-01-07T01:22:54;8.60;88.60
546;DHT22;259;53.304;9.816;2024-01-07T01:25:20;8.50;88.60
546;DHT22;259;53.304;9.816;2024-01-07T01:27:46;8.50;88.70
546;DHT22;259;53.304;9.816;2024-01-07T01:30:12;8.50;88.90
546;DHT22;259;53.304;9.816;2024-01-07T01:32:38;8.40;89.00
546;DHT22;259;53.304;9.816;2024-01-07T01:35:05;8.40;89.00
546;DHT22;259;53.304;9.816;2024-01-07T01:37:31;8.40;89.10
546;DHT22;259;53.304;9.816;2024-01-07T01:39:58;8.30;89.30
546;DHT22;259;53.304;9.816;2024-01-07T01:42:24;8.30;89.40
546;DHT22;259;53.304;9.816;2024-01-07T01:44:50;8.30;89.50
546;DHT22;259;53.304;9.816;2024-01-07T01:47:17;8.20;89.50
546;DHT22;259;53.304;9.816;2024-01-07T01:49:45;8.20;89.70
546;DHT22;259;53.304;9.816;2024-01-07T01:52:11;8.20;89.80
546;DHT22;259;53.304;9.816;2024-01-07T01:54:38;8.20;89.80
546;DHT22;259;53.304;9.816;2024-01-07T01:57:04;8.10;89.90
546;DHT22;259;53.304;9.816;2024-01-07T01:59:32;8.10;89.90
546;DHT22;259;53.304;9.816;2024-01-07T02:02:00;8.10;89.90
546;DHT22;259;53.304;9.816;2024-01-07T02:04:26;8.10;90.00
546;DHT22;259;53.304;9.816;2024-01-07T02:06:52;8.00;89.90
546;DHT22;259;53.304;9.816;2024-01-07T02:09:18;8.00;90.00
546;DHT22;259;53.304;9.816;2024-01-07T02:12:03;8.00;90.00
546;DHT22;259;53.304;9.816;2024-01-07T02:14:29;8.00;90.00
546;DHT22;259;53.304;9.816;2024-01-07T02:16:55;8.00;90.10
546;DHT22;259;53.304;9.816;2024-01-07T02:19:21;7.90;90.10
546;DHT22;259;53.304;9.816;2024-01-07T02:21:49;7.90;90.10
546;DHT22;259;53.304;9.816;2024-01-07T02:24:16;7.90;90.10
546;DHT22;259;53.304;9.816;2024-01-07T02:26:42;7.90;90.20
546;DHT22;259;53.304;9.816;2024-01-07T02:29:07;7.90;90.20
546;DHT22;259;53.304;9.816;2024-01-07T02:31:33;7.90;90.20
546;DHT22;259;53.304;9.816;2024-01-07T02:33:59;7.80;90.20
546;DHT22;259;53.304;9.816;2024-01-07T02:36:24;7.80;90.20
546;DHT22;259;53.304;9.816;2024-01-07T02:38:50;7.80;90.20
546;DHT22;259;53.304;9.816;2024-01-07T02:41:16;7.80;90.30
546;DHT22;259;53.304;9.816;2024-01-07T02:43:41;7.80;90.30
546;DHT22;259;53.304;9.816;2024-01-07T02:46:08;7.70;90.20
546;DHT22;259;53.304;9.816;2024-01-07T02:48:33;7.70;90.30
546;DHT22;259;53.304;9.816;2024-01-07T02:51:00;7.70;90.40
546;DHT22;259;53.304;9.816;2024-01-07T02:53:26;7.70;90.30
546;DHT22;259;53.304;9.816;2024-01-07T02:55:51;7.70;90.30
546;DHT22;259;53.304;9.816;2024-01-07T02:58:17;7.70;90.40
546;DHT22;259;53.304;9.816;2024-01-07T03:00:43;7.70;90.40
546;DHT22;259;53.304;9.816;2024-01-07T03:03:08;7.70;90.50
546;DHT22;259;53.304;9.816;2024-01-07T03:05:34;7.60;90.40
546;DHT22;259;53.304;9.816;2024-01-07T03:08:00;7.60;90.40
546;DHT22;259;53.304;9.816;2024-01-07T03:10:26;7.60;90.50
546;DHT22;259;53.304;9.816;2024-01-07T03:12:52;7.60;90.50
546;DHT22;259;53.304;9.816;2024-01-07T03:15:17;7.60;90.80
546;DHT22;259;53.304;9.816;2024-01-07T03:17:43;7.60;90.60
546;DHT22;259;53.304;9.816;2024-01-07T03:20:10;7.60;90.60
546;DHT22;259;53.304;9.816;2024-01-07T03:22:36;7.50;90.50
546;DHT22;259;53.304;9.816;2024-01-07T03:25:02;7.60;90.60
546;DHT22;259;53.304;9.816;2024-01-07T03:27:27;7.50;90.60
546;DHT22;259;53.304;9.816;2024-01-07T03:29:53;7.50;90.60
546;DHT22;259;53.304;9.816;2024-01-07T03:32:19;7.50;90.60
546;DHT22;259;53.304;9.816;2024-01-07T03:34:44;7.50;90.60
546;DHT22;259;53.304;9.816;2024-01-07T03:37:10;7.50;90.60
546;DHT22;259;53.304;9.816;2024-01-07T03:39:36;7.50;90.60
546;DHT22;259;53.304;9.816;2024-01-07T03:42:01;7.50;90.70
546;DHT22;259;53.304;9.816;2024-01-07T03:44:27;7.50;90.70
546;DHT22;259;53.304;9.816;2024-01-07T03:46:53;7.50;90.70
546;DHT22;259;53.304;9.816;2024-01-07T03:49:18;7.40;90.60
546;DHT22;259;53.304;9.816;2024-01-07T03:51:44;7.40;90.70
546;DHT22;259;53.304;9.816;2024-01-07T03:54:10;7.40;90.70
546;DHT22;259;53.304;9.816;2024-01-07T03:56:35;7.40;90.70
546;DHT22;259;53.304;9.816;2024-01-07T03:59:01;7.40;90.90
546;DHT22;259;53.304;9.816;2024-01-07T04:01:27;7.40;90.80
546;DHT22;259;53.304;9.816;2024-01-07T04:03:53;7.40;90.90
546;DHT22;259;53.304;9.816;2024-01-07T04:06:18;7.40;90.90
546;DHT22;259;53.304;9.816;2024-01-07T04:08:44;7.40;90.80
546;DHT22;259;53.304;9.816;2024-01-07T04:11:10;7.40;90.90
546;DHT22;259;53.304;9.816;2024-01-07T04:13:36;7.30;91.00
546;DHT22;259;53.304;9.816;2024-01-07T04:16:02;7.30;91.00
546;DHT22;259;53.304;9.816;2024-01-07T04:18:28;7.30;90.90
546;DHT22;259;53.304;9.816;2024-01-07T04:20:53;7.30;91.00
546;DHT22;259;53.304;9.816;2024-01-07T04:23:19;7.30;90.90
546;DHT22;259;53.304;9.816;2024-01-07T04:25:45;7.30;91.00
546;DHT22;259;53.304;9.816;2024-01-07T04:28:11;7.30;91.00
546;DHT22;259;53.304;9.816;2024-01-07T04:30:36;7.20;90.90
546;DHT22;259;53.304;9.816;2024-01-07T04:33:02;7.30;91.10
546;DHT22;259;53.304;9.816;2024-01-07T04:35:28;7.20;91.00
546;DHT22;259;53.304;9.816;2024-01-07T04:37:55;7.20;91.10
546;DHT22;259;53.304;9.816;2024-01-07T04:40:21;7.20;91.10
546;DHT22;259;53.304;9.816;2024-01-07T04:42:46;7.20;91.00
546;DHT22;259;53.304;9.816;2024-01-07T04:45:12;7.20;91.10
546;DHT22;259;53.304;9.816;2024-01-07T04:47:38;7.20;91.20
546;DHT22;259;53.304;9.816;2024-01-07T04:50:04;6.80;90.90
546;DHT22;259;53.304;9.816;2024-01-07T04:52:30;7.20;91.10
546;DHT22;259;53.304;9.816;2024-01-07T04:54:56;7.20;91.10
546;DHT22;259;53.304;9.816;2024-01-07T04:57:22;7.10;91.10
546;DHT22;259;53.304;9.816;2024-01-07T04:59:48;7.10;91.20
546;DHT22;259;53.304;9.816;2024-01-07T05:02:14;7.20;91.30
546;DHT22;259;53.304;9.816;2024-01-07T05:04:41;7.10;91.20
546;DHT22;259;53.304;9.816;2024-01-07T05:07:07;7.10;91.30
546;DHT22;259;53.304;9.816;2024-01-07T05:09:33;7.10;91.20
546;DHT22;259;53.304;9.816;2024-01-07T05:11:59;7.10;91.30
546;DHT22;259;53.304;9.816;2024-01-07T05:14:25;7.10;91.20
546;DHT22;259;53.304;9.816;2024-01-07T05:16:53;7.10;91.40
546;DHT22;259;53.304;9.816;2024-01-07T05:19:20;7.10;91.20
546;DHT22;259;53.304;9.816;2024-01-07T05:21:45;7.10;91.40
546;DHT22;259;53.304;9.816;2024-01-07T05:24:11;7.00;91.20
546;DHT22;259;53.304;9.816;2024-01-07T05:26:41;7.10;91.30
546;DHT22;259;53.304;9.816;2024-01-07T05:29:07;7.10;91.30
546;DHT22;259;53.304;9.816;2024-01-07T05:31:33;7.00;91.30
546;DHT22;259;53.304;9.816;2024-01-07T05:33:59;7.00;91.40
546;DHT22;259;53.304;9.816;2024-01-07T05:36:25;7.00;91.30
546;DHT22;259;53.304;9.816;2024-01-07T05:38:50;7.00;91.30
546;DHT22;259;53.304;9.816;2024-01-07T05:41:16;7.00;91.40
546;DHT22;259;53.304;9.816;2024-01-07T05:43:42;7.00;91.50
546;DHT22;259;53.304;9.816;2024-01-07T05:46:07;7.00;91.40
546;DHT22;259;53.304;9.816;2024-01-07T05:48:47;7.00;91.40
546;DHT22;259;53.304;9.816;2024-01-07T05:51:14;7.00;91.40
546;DHT22;259;53.304;9.816;2024-01-07T05:53:41;7.00;91.40
546;DHT22;259;53.304;9.816;2024-01-07T05:56:07;7.00;91.20
546;DHT22;259;53.304;9.816;2024-01-07T05:58:33;7.00;91.50
546;DHT22;259;53.304;9.816;2024-01-07T06:00:59;7.10;92.00
546;DHT22;259;53.304;9.816;2024-01-07T06:03:26;7.30;92.60
546;DHT22;259;53.304;9.816;2024-01-07T06:05:52;7.50;92.40
546;DHT22;259;53.304;9.816;2024-01-07T06:08:17;7.70;92.10
546;DHT22;259;53.304;9.816;2024-01-07T06:10:43;7.90;91.70
546;DHT22;259;53.304;9.816;2024-01-07T06:13:09;8.00;91.30
546;DHT22;259;53.304;9.816;2024-01-07T06:15:35;8.10;91.00
546;DHT22;259;53.304;9.816;2024-01-07T06:18:01;8.20;90.70
546;DHT22;259;53.304;9.816;2024-01-07T06:20:26;8.20;90.50
546;DHT22;259;53.304;9.816;2024-01-07T06:22:53;8.20;90.40
546;DHT22;259;53.304;9.816;2024-01-07T06:25:19;8.20;90.30
546;DHT22;259;53.304;9.816;2024-01-07T06:27:46;8.20;90.20
546;DHT22;259;53.304;9.816;2024-01-07T06:30:12;8.20;90.20
546;DHT22;259;53.304;9.816;2024-01-07T06:32:38;8.20;90.10
546;DHT22;259;53.304;9.816;2024-01-07T06:35:04;8.20;90.10
546;DHT22;259;53.304;9.816;2024-01-07T06:37:30;8.20;90.10
546;DHT22;259;53.304;9.816;2024-01-07T06:39:56;8.20;90.10
546;DHT22;259;53.304;9.816;2024-01-07T06:42:23;8.10;90.00
546;DHT22;259;53.304;9.816;2024-01-07T06:44:49;8.10;90.00
546;DHT22;259;53.304;9.816;2024-01-07T06:47:15;8.10;90.00
546;DHT22;259;53.304;9.816;2024-01-07T06:49:41;8.10;90.00
546;DHT22;259;53.304;9.816;2024-01-07T06:52:06;8.00;90.00
546;DHT22;259;53.304;9.816;2024-01-07T06:54:32;8.00;90.00
546;DHT22;259;53.304;9.816;2024-01-07T06:56:58;8.00;90.10
546;DHT22;259;53.304;9.816;2024-01-07T06:59:24;8.00;90.10
546;DHT22;259;53.304;9.816;2024-01-07T07:01:49;7.90;90.10
546;DHT22;259;53.304;9.816;2024-01-07T07:04:15;7.90;90.20
546;DHT22;259;53.304;9.816;2024-01-07T07:06:41;7.90;90.20
546;DHT22;259;53.304;9.816;2024-01-07T07:09:06;7.90;90.30
546;DHT22;259;53.304;9.816;2024-01-07T07:11:32;7.80;90.30
546;DHT22;259;53.304;9.816;2024-01-07T07:13:58;7.80;90.30
546;DHT22;259;53.304;9.816;2024-01-07T07:16:24;7.80;90.40
546;DHT22;259;53.304;9.816;2024-01-07T07:18:51;7.80;90.40
546;DHT22;259;53.304;9.816;2024-01-07T07:21:16;7.70;90.40
546;DHT22;259;53.304;9.816;2024-01-07T07:23:42;7.70;90.50
546;DHT22;259;53.304;9.816;2024-01-07T07:26:08;7.70;90.50
546;DHT22;259;53.304;9.816;2024-01-07T07:28:33;7.70;90.50
546;DHT22;259;53.304;9.816;2024-01-07T07:30:59;7.70;90.50
546;DHT22;259;53.304;9.816;2024-01-07T07:33:25;7.60;90.60
546;DHT22;259;53.304;9.816;2024-01-07T07:35:50;7.60;90.60
546;DHT22;259;53.304;9.816;2024-01-07T07:38:16;7.60;90.70
546;DHT22;259;53.304;9.816;2024-01-07T07:40:42;7.60;90.60
546;DHT22;259;53.304;9.816;2024-01-07T07:43:08;7.60;90.70
546;DHT22;259;53.304;9.816;2024-01-07T07:45:34;7.50;90.70
546;DHT22;259;53.304;9.816;2024-01-07T07:47:59;7.50;90.70
546;DHT22;259;53.304;9.816;2024-01-07T07:50:25;7.50;90.70
546;DHT22;259;53.304;9.816;2024-01-07T07:52:51;7.50;90.80
546;DHT22;259;53.304;9.816;2024-01-07T07:55:17;7.50;90.80
546;DHT22;259;53.304;9.816;2024-01-07T07:57:43;7.50;90.80
546;DHT22;259;53.304;9.816;2024-01-07T08:00:09;7.40;90.80
546;DHT22;259;53.304;9.816;2024-01-07T08:02:38;7.40;90.80
546;DHT22;259;53.304;9.816;2024-01-07T08:05:06;7.40;90.90
546;DHT22;259;53.304;9.816;2024-01-07T08:07:32;7.40;90.90
546;DHT22;259;53.304;9.816;2024-01-07T08:09:57;7.40;90.90
546;DHT22;259;53.304;9.816;2024-01-07T08:12:23;7.40;91.00
546;DHT22;259;53.304;9.816;2024-01-07T08:14:49;7.40;91.00
546;DHT22;259;53.304;9.816;2024-01-07T08:17:15;7.40;91.00
546;DHT22;259;53.304;9.816;2024-01-07T08:19:40;7.40;91.10
546;DHT22;259;53.304;9.816;2024-01-07T08:22:06;7.30;91.00
546;DHT22;259;53.304;9.816;2024-01-07T08:24:32;7.30;91.00
546;DHT22;259;53.304;9.816;2024-01-07T08:26:58;7.30;91.10
546;DHT22;259;53.304;9.816;2024-01-07T08:29:24;7.30;91.00
546;DHT22;259;53.304;9.816;2024-01-07T08:31:50;7.30;91.10
546;DHT22;259;53.304;9.816;2024-01-07T08:34:16;7.30;91.10
546;DHT22;259;53.304;9.816;2024-01-07T08:36:42;7.30;91.10
546;DHT22;259;53.304;9.816;2024-01-07T08:39:07;7.30;91.10
546;DHT22;259;53.304;9.816;2024-01-07T08:41:34;7.30;91.10
546;DHT22;259;53.304;9.816;2024-01-07T08:43:59;7.20;91.10
546;DHT22;259;53.304;9.816;2024-01-07T08:46:25;7.20;91.10
546;DHT22;259;53.304;9.816;2024-01-07T08:48:51;7.20;91.10
546;DHT22;259;53.304;9.816;2024-01-07T08:51:16;7.20;91.20
546;DHT22;259;53.304;9.816;2024-01-07T08:53:42;7.20;91.20
546;DHT22;259;53.304;9.816;2024-01-07T08:56:08;7.20;91.00
546;DHT22;259;53.304;9.816;2024-01-07T08:58:34;7.20;91.20
546;DHT22;259;53.304;9.816;2024-01-07T09:01:00;7.20;91.10
546;DHT22;259;53.304;9.816;2024-01-07T09:03:25;7.20;91.10
546;DHT22;259;53.304;9.816;2024-01-07T09:05:52;7.20;91.10
546;DHT22;259;53.304;9.816;2024-01-07T09:08:17;7.10;91.10
546;DHT22;259;53.304;9.816;2024-01-07T09:10:43;7.10;91.10
546;DHT22;259;53.304;9.816;2024-01-07T09:13:09;7.10;91.10
546;DHT22;259;53.304;9.816;2024-01-07T09:15:35;7.10;91.10
546;DHT22;259;53.304;9.816;2024-01-07T09:18:00;7.10;91.20
546;DHT22;259;53.304;9.816;2024-01-07T09:20:26;7.10;91.20
546;DHT22;259;53.304;9.816;2024-01-07T09:22:52;7.10;91.20
546;DHT22;259;53.304;9.816;2024-01-07T09:25:17;7.10;91.30
546;DHT22;259;53.304;9.816;2024-01-07T09:27:43;7.10;91.20
546;DHT22;259;53.304;9.816;2024-01-07T09:30:09;7.10;91.20
546;DHT22;259;53.304;9.816;2024-01-07T09:32:37;7.10;91.30
546;DHT22;259;53.304;9.816;2024-01-07T09:35:03;7.10;91.30
546;DHT22;259;53.304;9.816;2024-01-07T09:37:31;7.00;91.20
546;DHT22;259;53.304;9.816;2024-01-07T09:39:56;7.00;91.30
546;DHT22;259;53.304;9.816;2024-01-07T09:42:23;7.00;91.30
546;DHT22;259;53.304;9.816;2024-01-07T09:44:50;7.00;91.20
546;DHT22;259;53.304;9.816;2024-01-07T09:47:16;7.00;91.20
546;DHT22;259;53.304;9.816;2024-01-07T09:49:43;7.00;91.30
546;DHT22;259;53.304;9.816;2024-01-07T09:52:10;7.00;91.50
546;DHT22;259;53.304;9.816;2024-01-07T09:54:38;7.00;91.30
546;DHT22;259;53.304;9.816;2024-01-07T09:57:06;7.00;91.30
546;DHT22;259;53.304;9.816;2024-01-07T09:59:33;7.00;91.30
546;DHT22;259;53.304;9.816;2024-01-07T10:01:59;7.00;91.40
546;DHT22;259;53.304;9.816;2024-01-07T10:04:26;7.00;91.40
546;DHT22;259;53.304;9.816;2024-01-07T10:06:53;6.90;91.30
546;DHT22;259;53.304;9.816;2024-01-07T10:09:20;6.90;91.40
546;DHT22;259;53.304;9.816;2024-01-07T10:11:49;6.90;91.40
546;DHT22;259;53.304;9.816;2024-01-07T10:14:15;6.90;91.40
546;DHT22;259;53.304;9.816;2024-01-07T10:16:41;7.00;91.40
546;DHT22;259;53.304;9.816;2024-01-07T10:19:07;6.90;91.40
546;DHT22;259;53.304;9.816;2024-01-07T10:21:33;6.90;91.20
546;DHT22;259;53.304;9.816;2024-01-07T10:24:10;6.90;91.70
546;DHT22;259;53.304;9.816;2024-01-07T10:26:40;6.90;91.30
546;DHT22;259;53.304;9.816;2024-01-07T10:29:07;6.90;91.40
546;DHT22;259;53.304;9.816;2024-01-07T10:31:38;6.90;91.40
546;DHT22;259;53.304;9.816;2024-01-07T10:34:09;6.90;91.40
546;DHT22;259;53.304;9.816;2024-01-07T10:36:35;6.90;91.40
546;DHT22;259;53.304;9.816;2024-01-07T10:39:02;6.90;91.40
546;DHT22;259;53.304;9.816;2024-01-07T10:41:29;6.90;91.40
546;DHT22;259;53.304;9.816;2024-01-07T10:43:55;6.90;91.30
546;DHT22;259;53.304;9.816;2024-01-07T10:46:21;6.90;91.60
546;DHT22;259;53.304;9.816;2024-01-07T10:48:58;6.90;91.40
546;DHT22;259;53.304;9.816;2024-01-07T10:51:27;6.90;91.40
546;DHT22;259;53.304;9.816;2024-01-07T10:53:55;6.90;91.40
546;DHT22;259;53.304;9.816;2024-01-07T10:56:28;6.80;91.40
546;DHT22;259;53.304;9.816;2024-01-07T10:58:58;6.80;91.40
546;DHT22;259;53.304;9.816;2024-01-07T11:01:25;6.80;91.40
546;DHT22;259;53.304;9.816;2024-01-07T11:03:59;6.80;91.30
546;DHT22;259;53.304;9.816;2024-01-07T11:09:44;6.90;91.50
546;DHT22;259;53.304;9.816;2024-01-07T11:12:20;6.80;91.50
546;DHT22;259;53.304;9.816;2024-01-07T11:14:46;6.80;91.50
546;DHT22;259;53.304;9.816;2024-01-07T11:20:12;6.80;91.40
546;DHT22;259;53.304;9.816;2024-01-07T11:22:44;6.80;91.60
546;DHT22;259;53.304;9.816;2024-01-07T11:25:30;6.80;91.40
546;DHT22;259;53.304;9.816;2024-01-07T11:27:58;6.80;91.60
546;DHT22;259;53.304;9.816;2024-01-07T11:30:24;6.90;92.00
546;DHT22;259;53.304;9.816;2024-01-07T11:32:57;7.00;92.90
546;DHT22;259;53.304;9.816;2024-01-07T11:35:54;7.30;92.90
546;DHT22;259;53.304;9.816;2024-01-07T11:38:24;7.60;93.50
546;DHT22;259;53.304;9.816;2024-01-07T11:40:50;7.90;93.60
546;DHT22;259;53.304;9.816;2024-01-07T11:43:17;8.30;93.30
546;DHT22;259;53.304;9.816;2024-01-07T11:45:44;8.60;92.30
546;DHT22;259;53.304;9.816;2024-01-07T11:48:10;8.90;91.50
546;DHT22;259;53.304;9.816;2024-01-07T11:50:35;9.10;90.90
546;DHT22;259;53.304;9.816;2024-01-07T11:53:02;9.20;90.30
546;DHT22;259;53.304;9.816;2024-01-07T11:55:29;9.30;89.90
546;DHT22;259;53.304;9.816;2024-01-07T11:58:00;9.30;89.20
546;DHT22;259;53.304;9.816;2024-01-07T12:00:27;9.40;88.80
546;DHT22;259;53.304;9.816;2024-01-07T12:02:53;9.40;88.40
546;DHT22;259;53.304;9.816;2024-01-07T12:05:18;9.40;88.10
546;DHT22;259;53.304;9.816;2024-01-07T12:07:44;9.40;87.80
546;DHT22;259;53.304;9.816;2024-01-07T12:10:10;9.30;87.50
546;DHT22;259;53.304;9.816;2024-01-07T12:12:38;9.30;87.40
546;DHT22;259;53.304;9.816;2024-01-07T12:15:06;9.40;87.30
546;DHT22;259;53.304;9.816;2024-01-07T12:17:32;9.40;87.00
546;DHT22;259;53.304;9.816;2024-01-07T12:19:59;9.40;86.90
546;DHT22;259;53.304;9.816;2024-01-07T12:22:27;9.40;86.80
546;DHT22;259;53.304;9.816;2024-01-07T12:25:08;9.40;86.80
546;DHT22;259;53.304;9.816;2024-01-07T12:27:34;9.40;86.90
546;DHT22;259;53.304;9.816;2024-01-07T12:30:01;9.40;87.10
546;DHT22;259;53.304;9.816;2024-01-07T12:32:27;9.40;87.30
546;DHT22;259;53.304;9.816;2024-01-07T12:34:57;9.30;87.20
546;DHT22;259;53.304;9.816;2024-01-07T12:37:26;9.30;87.40
546;DHT22;259;53.304;9.816;2024-01-07T12:39:53;9.20;87.40
546;DHT22;259;53.304;9.816;2024-01-07T12:42:19;9.20;87.60
546;DHT22;259;53.304;9.816;2024-01-07T12:44:47;9.20;87.70
546;DHT22;259;53.304;9.816;2024-01-07T12:47:14;9.10;87.80
546;DHT22;259;53.304;9.816;2024-01-07T12:49:40;9.10;87.90
546;DHT22;259;53.304;9.816;2024-01-07T12:52:06;9.10;88.10
546;DHT22;259;53.304;9.816;2024-01-07T12:54:31;9.00;88.20
546;DHT22;259;53.304;9.816;2024-01-07T12:56:57;9.00;88.30
546;DHT22;259;53.304;9.816;2024-01-07T12:59:23;9.00;88.50
546;DHT22;259;53.304;9.816;2024-01-07T13:01:49;9.00;88.60
546;DHT22;259;53.304;9.816;2024-01-07T13:04:16;8.90;88.70
546;DHT22;259;53.304;9.816;2024-01-07T13:06:42;8.90;88.80
546;DHT22;259;53.304;9.816;2024-01-07T13:09:08;8.90;89.00
546;DHT22;259;53.304;9.816;2024-01-07T13:11:34;8.80;89.10
546;DHT22;259;53.304;9.816;2024-01-07T13:14:00;8.80;89.20
546;DHT22;259;53.304;9.816;2024-01-07T13:16:27;8.70;89.30
546;DHT22;259;53.304;9.816;2024-01-07T13:18:54;8.70;89.50
546;DHT22;259;53.304;9.816;2024-01-07T13:21:20;8.70;89.50
546;DHT22;259;53.304;9.816;2024-01-07T13:23:47;8.70;89.60
546;DHT22;259;53.304;9.816;2024-01-07T13:26:13;8.60;89.70
546;DHT22;259;53.304;9.816;2024-01-07T13:28:39;8.60;89.80
546;DHT22;259;53.304;9.816;2024-01-07T13:31:06;8.60;89.90
546;DHT22;259;53.304;9.816;2024-01-07T13:33:33;8.70;90.00
546;DHT22;259;53.304;9.816;2024-01-07T13:35:59;8.60;90.00
546;DHT22;259;53.304;9.816;2024-01-07T13:38:24;8.70;90.40
546;DHT22;259;53.304;9.816;2024-01-07T13:40:50;8.70;90.00
546;DHT22;259;53.304;9.816;2024-01-07T13:43:17;8.70;90.10
546;DHT22;259;53.304;9.816;2024-01-07T13:45:43;8.70;90.10
546;DHT22;259;53.304;9.816;2024-01-07T13:48:09;8.70;90.00
546;DHT22;259;53.304;9.816;2024-01-07T13:50:35;8.70;90.10
546;DHT22;259;53.304;9.816;2024-01-07T13:53:01;8.70;90.20
546;DHT22;259;53.304;9.816;2024-01-07T13:55:27;8.70;90.10
546;DHT22;259;53.304;9.816;2024-01-07T13:57:53;8.60;90.00
546;DHT22;259;53.304;9.816;2024-01-07T14:00:19;8.60;90.00
546;DHT22;259;53.304;9.816;2024-01-07T14:02:45;8.60;90.10
546;DHT22;259;53.304;9.816;2024-01-07T14:05:11;8.60;90.10
546;DHT22;259;53.304;9.816;2024-01-07T14:07:37;8.50;90.10
546;DHT22;259;53.304;9.816;2024-01-07T14:10:05;8.50;90.10
546;DHT22;259;53.304;9.816;2024-01-07T14:12:32;8.50;90.10
546;DHT22;259;53.304;9.816;2024-01-07T14:14:58;8.40;90.10
546;DHT22;259;53.304;9.816;2024-01-07T14:17:26;8.40;90.20
546;DHT22;259;53.304;9.816;2024-01-07T14:19:52;8.40;90.20
546;DHT22;259;53.304;9.816;2024-01-07T14:22:21;8.40;90.20
546;DHT22;259;53.304;9.816;2024-01-07T14:24:47;8.10;90.10
546;DHT22;259;53.304;9.816;2024-01-07T14:27:15;8.30;90.30
546;DHT22;259;53.304;9.816;2024-01-07T14:29:41;8.30;90.30
546;DHT22;259;53.304;9.816;2024-01-07T14:32:07;8.30;90.40
546;DHT22;259;53.304;9.816;2024-01-07T14:34:33;8.30;90.40
546;DHT22;259;53.304;9.816;2024-01-07T14:36:59;8.20;90.40
546;DHT22;259;53.304;9.816;2024-01-07T14:39:26;8.20;90.50
546;DHT22;259;53.304;9.816;2024-01-07T14:41:51;8.20;90.50
546;DHT22;259;53.304;9.816;2024-01-07T14:44:17;8.20;90.60
546;DHT22;259;53.304;9.816;2024-01-07T14:46:43;8.20;90.60
546;DHT22;259;53.304;9.816;2024-01-07T14:49:09;8.10;90.60
546;DHT22;259;53.304;9.816;2024-01-07T14:51:34;8.10;90.60
546;DHT22;259;53.304;9.816;2024-01-07T14:54:00;8.10;90.60
546;DHT22;259;53.304;9.816;2024-01-07T14:56:26;8.10;90.60
546;DHT22;259;53.304;9.816;2024-01-07T14:58:52;8.10;90.70
546;DHT22;259;53.304;9.816;2024-01-07T15:01:18;8.10;90.70
546;DHT22;259;53.304;9.816;2024-01-07T15:03:44;8.00;90.70
546;DHT22;259;53.304;9.816;2024-01-07T15:06:09;8.00;90.70
546;DHT22;259;53.304;9.816;2024-01-07T15:08:36;8.00;90.70
546;DHT22;259;53.304;9.816;2024-01-07T15:11:02;8.00;90.70
546;DHT22;259;53.304;9.816;2024-01-07T15:13:28;8.00;90.70
546;DHT22;259;53.304;9.816;2024-01-07T15:15:55;8.00;90.80
546;DHT22;259;53.304;9.816;2024-01-07T15:18:21;7.90;91.10
546;DHT22;259;53.304;9.816;2024-01-07T15:20:47;7.90;90.70
546;DHT22;259;53.304;9.816;2024-01-07T15:23:12;7.90;90.80
546;DHT22;259;53.304;9.816;2024-01-07T15:25:38;7.90;90.80
546;DHT22;259;53.304;9.816;2024-01-07T15:28:04;7.90;90.80
546;DHT22;259;53.304;9.816;2024-01-07T15:30:29;7.90;90.80
546;DHT22;259;53.304;9.816;2024-01-07T15:32:55;7.90;90.80
546;DHT22;259;53.304;9.816;2024-01-07T15:35:21;7.90;90.80
546;DHT22;259;53.304;9.816;2024-01-07T15:37:46;7.80;90.90
546;DHT22;259;53.304;9.816;2024-01-07T15:40:12;7.80;90.90
546;DHT22;259;53.304;9.816;2024-01-07T15:42:39;7.80;90.90
546;DHT22;259;53.304;9.816;2024-01-07T15:45:05;7.80;90.90
546;DHT22;259;53.304;9.816;2024-01-07T15:47:32;7.80;91.00
546;DHT22;259;53.304;9.816;2024-01-07T15:50:00;7.70;91.10
546;DHT22;259;53.304;9.816;2024-01-07T15:52:26;7.70;91.00
546;DHT22;259;53.304;9.816;2024-01-07T15:54:54;7.70;91.10
546;DHT22;259;53.304;9.816;2024-01-07T15:57:20;7.70;91.10
546;DHT22;259;53.304;9.816;2024-01-07T15:59:46;7.70;91.00
546;DHT22;259;53.304;9.816;2024-01-07T16:02:12;7.70;91.10
546;DHT22;259;53.304;9.816;2024-01-07T16:04:38;7.70;91.10
546;DHT22;259;53.304;9.816;2024-01-07T16:07:03;7.70;91.10
546;DHT22;259;53.304;9.816;2024-01-07T16:09:29;7.70;91.20
546;DHT22;259;53.304;9.816;2024-01-07T16:12:00;7.60;91.10
546;DHT22;259;53.304;9.816;2024-01-07T16:14:26;7.60;91.20
546;DHT22;259;53.304;9.816;2024-01-07T16:16:53;7.60;91.20
546;DHT22;259;53.304;9.816;2024-01-07T16:19:19;7.60;91.10
546;DHT22;259;53.304;9.816;2024-01-07T16:21:45;7.60;91.20
546;DHT22;259;53.304;9.816;2024-01-07T16:24:11;7.60;91.20
546;DHT22;259;53.304;9.816;2024-01-07T16:26:41;7.60;91.20
546;DHT22;259;53.304;9.816;2024-01-07T16:29:08;7.50;91.40
546;DHT22;259;53.304;9.816;2024-01-07T16:31:34;7.50;91.10
546;DHT22;259;53.304;9.816;2024-01-07T16:34:00;7.50;91.20
546;DHT22;259;53.304;9.816;2024-01-07T16:36:26;7.50;91.20
546;DHT22;259;53.304;9.816;2024-01-07T16:38:53;7.50;91.20
546;DHT22;259;53.304;9.816;2024-01-07T16:41:19;7.50;91.20
546;DHT22;259;53.304;9.816;2024-01-07T16:43:44;7.50;91.20
546;DHT22;259;53.304;9.816;2024-01-07T16:46:11;7.50;91.30
546;DHT22;259;53.304;9.816;2024-01-07T16:48:38;7.40;91.20
546;DHT22;259;53.304;9.816;2024-01-07T16:51:04;7.40;91.20